Terminal Aerodrome Forecast
Issued by NWS Detroit/Pontiac, MI

Home | Current Version | Previous Version | Text Only | Print | Product List | Glossary On
Versions: 1 2 3 4 5 6 7 8 9 10 11 12 13 14 15
000
FTUS43 KDTX 291725
TAFFNT
TAF
KFNT 291725Z 2918/3018 05010KT P6SM BKN018 OVC035
     FM292000 06009KT P6SM OVC035
     FM300000 07005KT P6SM BKN045
     FM300500 07002KT P6SM SCT045
     FM301500 10010KT P6SM OVC150=

USA.gov is the U.S. government's official web portal to all federal, state and local government web resources and services.